Messwerte Tegucigalpa

Temperatur

Temperatur
°C
1603854000 21.00 21.00 21
1603857600 22.00 22.00 20
1603861200 23.00 23.00 20
1603864800 0.00 0.00 20
1603868400 1.00 1.00 20
1603872000 2.00 2.00 19
1603875600 3.00 3.00 19
1603879200 4.00 4.00
1603882800 5.00 5.00
1603886400 6.00 6.00 19
1603890000 7.00 7.00
1603893600 8.00 8.00 23
1603897200 9.00 9.00 24
1603900800 10.00 10.00 26
1603904400 11.00 11.00 27
1603908000 12.00 12.00 27
1603911600 13.00 13.00 28
1603915200 14.00 14.00 31
1603918800 15.00 15.00 28
1603922400 16.00 16.00 28
1603926000 17.00 17.00 26
1603929600 18.00 18.00 24
1603933200 19.00 19.00 24
1603936800 20.00 20.00 24

Aktuellste Messwerte

Wettercharakter
Wetter: vereinzelte Gewitter
Temperatur
24 °C
Feuchtigkeit
94 %
Wind
10 km/hWindrichtung: Südost
Luftdruck
1017 hPa
Messzeit: 28. Oktober 2020, 20.00Datenquelle: METAR

Weitere Messstationen in der Nähe

Messstation Temperatur Entfernung
Choluteca - 83 km
La Esperanza - 105 km
Yoro - 125 km
Chinandega - 158 km
Jinotega - 172 km
La Mesa 28 °C 173 km
Catacamas - 181 km

Wind

Windrichtung Böen Mittelwind
° km/h km/h
1603854000 21.00 20.00 - 21.00 5
1603857600 22.00 21.00 - 22.00 5
1603861200 23.00 22.00 - 23.00 0
1603864800 0.00 23.00 - 0.00 5
1603868400 1.00 0.00 - 1.00 0
1603872000 2.00 1.00 - 2.00 0
1603875600 3.00 2.00 - 3.00 0
1603879200 4.00 3.00 - 4.00
1603882800 5.00 4.00 - 5.00
1603886400 6.00 5.00 - 6.00 0
1603890000 7.00 6.00 - 7.00
1603893600 8.00 7.00 - 8.00 0
1603897200 9.00 8.00 - 9.00 0
1603900800 10.00 9.00 - 10.00 0
1603904400 11.00 10.00 - 11.00 60° 10
1603908000 12.00 11.00 - 12.00 60° 10
1603911600 13.00 12.00 - 13.00 90° 10
1603915200 14.00 13.00 - 14.00 130° 10
1603918800 15.00 14.00 - 15.00 100° 15
1603922400 16.00 15.00 - 16.00 150° 15
1603926000 17.00 16.00 - 17.00 0
1603929600 18.00 17.00 - 18.00 0
1603933200 19.00 18.00 - 19.00 150° 10
1603936800 20.00 19.00 - 20.00 150° 10

Ihre Wetterstation

Fehlt Ihre Wetterstation auf unserem Portal?

Schreiben Sie an network@meteonews.ch

Klima

Wann ist es am wärmsten? Wann regnet es am wenigsten? Unsere Klimadaten geben Auskunft.